Terminal Aerodrome Forecast
Issued by NWS

Current Version | Previous Version | Text Only | Print | Product List | Glossary On
Versions: 1 2 3 4 5 6 7 8 9 10 11 12 13 14 15 16
000
FTUS42 TJSJ 211120
TAFJSJ
TAF
TJSJ 211120Z 2112/2212 10006KT P6SM VCSH SCT030 BKN050 BKN080
      TEMPO 2112/2114 VRB12KT 6SM -SHRA BKN025 BKN050
     FM211400 08015G25KT P6SM FEW030 FEW060 SCT090
     FM211700 08016G26KT P6SM VCSH SCT025 BKN050
     FM212300 09012KT P6SM FEW030 SCT070=

USA.gov is the U.S. government's official web portal to all federal, state and local government web resources and services.